TimeAKST,TemperatureF,Dew PointF,Humidity,Sea Level PressureIn,VisibilityMPH,Wind Direction,Wind SpeedMPH,Gust SpeedMPH,PrecipitationIn,Events,Conditions,WindDirDegrees,DateUTC
12:19 AM,26.6,24.8,93,29.79,2.5,Calm,Calm,-,N/A,Snow,Light Snow,0,2012-12-11 09:19:00
12:27 AM,26.6,24.8,93,29.79,3.0,SW,3.5,-,N/A,Snow,Light Snow,220,2012-12-11 09:27:00
12:35 AM,26.6,24.8,93,29.79,7.0,SSW,3.5,-,N/A,,Overcast,200,2012-12-11 09:35:00
12:40 AM,26.6,24.8,93,29.78,6.0,SSW,4.6,-,N/A,Snow,Light Snow,200,2012-12-11 09:40:00
12:49 AM,26.6,24.8,93,29.79,4.0,Calm,Calm,-,N/A,Snow,Light Snow,0,2012-12-11 09:49:00
12:55 AM,26.2,25.5,97,29.80,6.0,Calm,Calm,-,0.00,Snow,Light Snow,0,2012-12-11 09:55:00
12:59 AM,26.6,24.8,93,29.80,8.0,Calm,Calm,-,N/A,,Overcast,0,2012-12-11 09:59:00
1:00 AM,24.8,24.8,100,29.80,8.0,Calm,Calm,-,N/A,Snow,Light Snow,0,2012-12-11 10:00:00
1:04 AM,24.8,24.8,100,29.80,8.0,Calm,Calm,-,N/A,Snow,Light Snow,0,2012-12-11 10:04:00
1:10 AM,24.8,24.8,100,29.81,7.0,Calm,Calm,-,N/A,Snow,Light Snow,0,2012-12-11 10:10:00
1:11 AM,24.8,24.8,100,29.81,7.0,Calm,Calm,-,N/A,Snow,Light Snow,0,2012-12-11 10:11:00
1:12 AM,26.6,24.8,93,29.81,7.0,Calm,Calm,-,N/A,Snow,Light Snow,0,2012-12-11 10:12:00
1:29 AM,24.8,24.8,100,29.81,10.0,Calm,Calm,-,N/A,,Overcast,0,2012-12-11 10:29:00
1:31 AM,24.8,24.8,100,29.81,10.0,Calm,Calm,-,N/A,,Overcast,0,2012-12-11 10:31:00
1:43 AM,26.6,24.8,93,29.81,10.0,West,4.6,-,N/A,,Overcast,260,2012-12-11 10:43:00
1:53 AM,26.6,24.8,93,29.81,10.0,WNW,4.6,-,N/A,,Overcast,290,2012-12-11 10:53:00
1:55 AM,26.2,25.5,97,29.82,10.0,WNW,5.8,-,0.00,,Overcast,300,2012-12-11 10:55:00
2:10 AM,26.6,24.8,93,29.83,10.0,NW,5.8,-,N/A,,Overcast,310,2012-12-11 11:10:00
2:20 AM,26.6,24.8,93,29.83,9.0,WNW,8.1,-,N/A,Snow,Light Snow,290,2012-12-11 11:20:00
2:48 AM,26.6,24.8,93,29.86,6.0,WNW,6.9,-,N/A,Snow,Light Snow,290,2012-12-11 11:48:00
2:55 AM,25.7,24.8,96,29.85,7.0,West,5.8,-,0.00,Snow,Light Snow,280,2012-12-11 11:55:00
3:02 AM,26.6,24.8,93,29.86,10.0,West,6.9,-,N/A,,Overcast,280,2012-12-11 12:02:00
3:08 AM,24.8,24.8,100,29.86,10.0,West,5.8,-,N/A,,Overcast,270,2012-12-11 12:08:00
3:13 AM,24.8,24.8,100,29.86,8.0,WSW,5.8,-,N/A,,Overcast,250,2012-12-11 12:13:00
3:14 AM,24.8,24.8,100,29.86,7.0,West,4.6,-,N/A,Snow,Light Snow,260,2012-12-11 12:14:00
3:15 AM,24.8,24.8,100,29.86,6.0,West,4.6,-,N/A,Snow,Light Snow,260,2012-12-11 12:15:00
3:17 AM,24.8,24.8,100,29.87,5.0,West,4.6,-,N/A,Snow,Light Snow,260,2012-12-11 12:17:00
3:33 AM,26.6,24.8,93,29.88,10.0,West,4.6,-,N/A,,Overcast,270,2012-12-11 12:33:00
3:38 AM,24.8,24.8,100,29.88,10.0,West,3.5,-,N/A,Snow,Light Snow,270,2012-12-11 12:38:00
3:47 AM,24.8,24.8,100,29.88,10.0,WSW,4.6,-,N/A,,Overcast,240,2012-12-11 12:47:00
3:55 AM,25.7,24.3,94,29.88,10.0,WSW,3.5,-,0.00,,Overcast,240,2012-12-11 12:55:00
4:10 AM,26.6,24.8,93,29.88,10.0,SW,5.8,-,N/A,Snow,Light Snow,220,2012-12-11 13:10:00
4:20 AM,26.6,24.8,93,29.88,10.0,WSW,6.9,-,N/A,,Overcast,240,2012-12-11 13:20:00
4:27 AM,26.6,23.0,86,29.88,10.0,WSW,8.1,-,N/A,,Overcast,240,2012-12-11 13:27:00
4:39 AM,26.6,23.0,86,29.88,10.0,SW,5.8,-,N/A,Snow,Light Snow,230,2012-12-11 13:39:00
4:51 AM,26.6,23.0,86,29.88,10.0,WSW,4.6,-,N/A,,Overcast,240,2012-12-11 13:51:00
4:55 AM,25.7,23.5,92,29.88,10.0,WSW,4.6,-,0.00,,Overcast,240,2012-12-11 13:55:00
5:36 AM,24.8,23.0,93,29.90,10.0,WSW,8.1,-,N/A,,Overcast,250,2012-12-11 14:36:00
5:55 AM,25.0,23.0,92,29.90,10.0,SW,6.9,-,N/A,,Overcast,220,2012-12-11 14:55:00
6:38 AM,24.8,23.0,93,29.91,10.0,Calm,Calm,-,N/A,,Overcast,0,2012-12-11 15:38:00
6:55 AM,24.8,23.2,94,29.90,10.0,Calm,Calm,-,N/A,,Overcast,0,2012-12-11 15:55:00
7:09 AM,24.8,23.0,93,29.90,10.0,Calm,Calm,-,N/A,,Overcast,0,2012-12-11 16:09:00
7:28 AM,24.8,23.0,93,29.89,10.0,East,3.5,-,N/A,,Overcast,90,2012-12-11 16:28:00
7:39 AM,24.8,21.2,86,29.89,10.0,East,5.8,-,N/A,,Overcast,90,2012-12-11 16:39:00
7:49 AM,23.0,21.2,93,29.88,10.0,East,6.9,-,N/A,,Mostly Cloudy,100,2012-12-11 16:49:00
7:52 AM,23.0,21.2,93,29.88,10.0,East,6.9,-,N/A,,Scattered Clouds,90,2012-12-11 16:52:00
7:55 AM,22.3,20.3,92,29.88,10.0,East,8.1,-,N/A,,Scattered Clouds,100,2012-12-11 16:55:00
8:52 AM,21.2,19.4,93,29.88,8.0,East,4.6,-,N/A,,Mostly Cloudy,80,2012-12-11 17:52:00
8:54 AM,21.2,19.4,93,29.88,8.0,East,4.6,-,N/A,,Scattered Clouds,80,2012-12-11 17:54:00
8:55 AM,21.0,19.2,93,29.88,8.0,East,4.6,-,N/A,,Scattered Clouds,80,2012-12-11 17:55:00
8:57 AM,21.2,19.4,93,29.88,8.0,East,5.8,-,N/A,,Mostly Cloudy,80,2012-12-11 17:57:00
9:02 AM,23.0,21.2,93,29.88,10.0,East,5.8,-,N/A,,Scattered Clouds,80,2012-12-11 18:02:00
9:46 AM,17.6,15.8,93,29.91,2.5,Calm,Calm,-,N/A,,Partly Cloudy,0,2012-12-11 18:46:00
9:55 AM,18.5,16.3,91,29.91,2.0,Calm,Calm,-,N/A,,Mostly Cloudy,0,2012-12-11 18:55:00
10:03 AM,17.6,15.8,93,29.91,3.0,Calm,Calm,-,N/A,,Mostly Cloudy,0,2012-12-11 19:03:00
10:55 AM,18.3,16.2,91,29.89,10.0,Calm,Calm,-,N/A,,Clear,0,2012-12-11 19:55:00
11:55 AM,15.8,13.1,89,29.90,10.0,ESE,4.6,-,N/A,,Scattered Clouds,110,2012-12-11 20:55:00
12:01 PM,15.8,14.0,93,29.91,10.0,East,3.5,-,N/A,,Mostly Cloudy,90,2012-12-11 21:01:00
12:55 PM,19.4,17.1,91,29.90,10.0,Calm,Calm,-,N/A,,Overcast,0,2012-12-11 21:55:00
1:26 PM,21.2,19.4,93,29.88,10.0,East,4.6,-,N/A,,Mostly Cloudy,90,2012-12-11 22:26:00
1:55 PM,19.6,17.6,92,29.88,10.0,Calm,Calm,-,N/A,,Clear,0,2012-12-11 22:55:00
2:55 PM,17.1,14.5,90,29.86,10.0,Calm,Calm,-,N/A,,Clear,0,2012-12-11 23:55:00
3:55 PM,16.9,14.5,91,29.85,10.0,Calm,Calm,-,N/A,,Clear,0,2012-12-12 00:55:00
4:55 PM,20.1,18.1,92,29.80,10.0,East,4.6,-,N/A,,Clear,80,2012-12-12 01:55:00
5:55 PM,23.2,20.5,89,29.81,10.0,NE,9.2,-,N/A,,Clear,40,2012-12-12 02:55:00
6:05 PM,23.0,19.4,86,29.81,10.0,SE,4.6,-,N/A,,Partly Cloudy,140,2012-12-12 03:05:00
6:17 PM,21.2,19.4,93,29.81,10.0,Calm,Calm,-,N/A,,Mostly Cloudy,0,2012-12-12 03:17:00
6:20 PM,21.2,19.4,93,29.81,10.0,Calm,Calm,-,N/A,,Mostly Cloudy,0,2012-12-12 03:20:00
6:29 PM,21.2,19.4,93,29.81,10.0,Calm,Calm,-,N/A,,Overcast,0,2012-12-12 03:29:00
6:55 PM,22.1,19.4,89,29.80,10.0,Calm,Calm,-,N/A,,Overcast,0,2012-12-12 03:55:00
7:55 PM,21.7,19.6,91,29.76,10.0,Calm,Calm,-,0.00,Snow,Light Snow,0,2012-12-12 04:55:00
8:04 PM,21.2,19.4,93,29.77,4.0,Calm,Calm,-,N/A,Snow,Light Snow,0,2012-12-12 05:04:00
8:22 PM,23.0,19.4,86,29.75,2.5,SSW,3.5,-,N/A,Snow,Light Snow,200,2012-12-12 05:22:00
8:25 PM,21.2,19.4,93,29.75,1.8,SSW,3.5,-,N/A,Snow,Light Snow,200,2012-12-12 05:25:00
8:27 PM,21.2,19.4,93,29.75,1.5,SSW,3.5,-,N/A,Snow,Light Snow,200,2012-12-12 05:27:00
8:31 PM,21.2,19.4,93,29.75,1.5,South,3.5,-,N/A,Snow,Light Snow,180,2012-12-12 05:31:00
8:35 PM,21.2,19.4,93,29.74,1.5,Calm,Calm,-,N/A,Snow,Light Snow,0,2012-12-12 05:35:00
8:39 PM,21.2,19.4,93,29.73,1.5,Calm,Calm,-,N/A,Snow,Light Snow,0,2012-12-12 05:39:00
8:40 PM,21.2,19.4,93,29.73,1.8,East,3.5,-,N/A,Snow,Light Snow,100,2012-12-12 05:40:00
8:43 PM,21.2,19.4,93,29.73,2.0,East,3.5,-,N/A,Snow,Light Snow,100,2012-12-12 05:43:00
8:51 PM,21.2,19.4,93,29.72,2.5,East,4.6,-,N/A,Snow,Light Snow,100,2012-12-12 05:51:00
8:55 PM,21.7,19.8,92,29.71,2.5,East,4.6,-,0.01,Snow,Light Snow,100,2012-12-12 05:55:00
9:02 PM,21.2,19.4,93,29.71,3.0,East,3.5,-,N/A,Snow,Light Snow,80,2012-12-12 06:02:00
9:06 PM,21.2,19.4,93,29.70,3.0,Calm,Calm,-,N/A,Snow,Light Snow,0,2012-12-12 06:06:00
9:34 PM,23.0,21.2,93,29.70,5.0,Calm,Calm,-,N/A,Snow,Light Snow,0,2012-12-12 06:34:00
9:43 PM,23.0,21.2,93,29.71,10.0,Calm,Calm,-,N/A,Snow,Light Snow,0,2012-12-12 06:43:00
9:51 PM,23.0,21.2,93,29.70,10.0,Calm,Calm,-,N/A,,Overcast,0,2012-12-12 06:51:00
9:55 PM,23.0,20.8,91,29.70,10.0,Calm,Calm,-,0.00,,Overcast,0,2012-12-12 06:55:00
10:05 PM,23.0,21.2,93,29.69,10.0,Calm,Calm,-,N/A,,Overcast,0,2012-12-12 07:05:00
10:06 PM,23.0,21.2,93,29.70,10.0,Calm,Calm,-,N/A,Snow,Light Snow,0,2012-12-12 07:06:00
10:46 PM,23.0,21.2,93,29.65,3.0,Calm,Calm,-,N/A,Snow,Light Snow,0,2012-12-12 07:46:00
10:55 PM,23.2,21.4,93,29.65,4.0,Calm,Calm,-,0.00,Snow,Light Snow,0,2012-12-12 07:55:00
11:03 PM,23.0,21.2,93,29.65,2.5,Calm,Calm,-,N/A,Snow,Light Snow,0,2012-12-12 08:03:00
11:15 PM,24.8,21.2,86,29.65,2.5,NE,4.6,-,N/A,Snow,Light Snow,50,2012-12-12 08:15:00
11:27 PM,24.8,23.0,93,29.64,2.5,NNE,4.6,-,N/A,Snow,Light Snow,30,2012-12-12 08:27:00
11:44 PM,24.8,23.0,93,29.63,3.0,NE,6.9,-,N/A,Snow,Light Snow,40,2012-12-12 08:44:00
11:49 PM,24.8,23.0,93,29.63,3.0,NE,6.9,-,N/A,Snow,Light Snow,40,2012-12-12 08:49:00
11:55 PM,24.4,22.1,91,29.62,3.0,NE,6.9,-,0.01,Snow,Light Snow,50,2012-12-12 08:55:00